• Join FlightAware (Why Join?)
  • Login
  • US Flag 
Gobble Gobble! 
07:34PM EST


 

Airport Tracker/Info


-or-


 

Live Flight TrackerFlight Track Log ✈ UAL1006 ✈ 05-Jun-2013 ✈ SKBO / BOG - KIAH

Flight Track Log - Related Links

Times and Time Zones

All times are in EDT time to prevent confusion due to time zone crossing. See the UAL1006 flight status page for this flight to view local times or setup timezone preferences in your user account.

Time Position Orientation Groundspeed Altitude Reporting Facility
EDT Latitude Longitude Course Direction KTS MPH feet Rate Location/Type
02:30AM 8.6337 -77.0854 323° Northwest  Level FlightAware Approximate
02:31AM 8.7271 -77.1562 323° Northwest  Level FlightAware Approximate
02:32AM 8.8206 -77.2271 323° Northwest  Level FlightAware Approximate
02:33AM 8.9141 -77.2980 323° Northwest  Level FlightAware Approximate
02:34AM 9.0075 -77.3689 323° Northwest  Level FlightAware Approximate
02:35AM 9.1010 -77.4399 323° Northwest  Level FlightAware Approximate
02:36AM 9.1944 -77.5109 323° Northwest  Level FlightAware Approximate
02:37AM 9.2878 -77.5820 323° Northwest  Level FlightAware Approximate
02:38AM 9.3812 -77.6531 323° Northwest  Level FlightAware Approximate
02:39AM 9.4745 -77.7242 323° Northwest  Level FlightAware Approximate
02:40AM 9.5679 -77.7954 323° Northwest  Level FlightAware Approximate
02:41AM 9.6612 -77.8666 323° Northwest  Level FlightAware Approximate
02:42AM 9.7546 -77.9379 323° Northwest  Level FlightAware Approximate
02:43AM 9.8479 -78.0092 323° Northwest  Level FlightAware Approximate
02:44AM 9.9419 -78.0810 323° Northwest  Level FlightAware Approximate
02:45AM 10.0359 -78.1528 323° Northwest  Level FlightAware Approximate
02:46AM 10.1299 -78.2247 323° Northwest  Level FlightAware Approximate
02:47AM 10.2239 -78.2966 323° Northwest  Level FlightAware Approximate
02:48AM 10.3179 -78.3685 323° Northwest  Level FlightAware Approximate
02:49AM 10.4119 -78.4405 323° Northwest  Level FlightAware Approximate
02:50AM 10.5058 -78.5125 323° Northwest  Level FlightAware Approximate
02:51AM 10.5998 -78.5845 323° Northwest  Level FlightAware Approximate
02:52AM 10.6937 -78.6566 323° Northwest  Level FlightAware Approximate
02:53AM 10.7876 -78.7288 323° Northwest  Level FlightAware Approximate
02:54AM 10.8815 -78.8009 323° Northwest  Level FlightAware Approximate
02:55AM 10.9754 -78.8732 323° Northwest  Level FlightAware Approximate
02:56AM 11.0692 -78.9454 323° Northwest  Level FlightAware Approximate
02:57AM 11.1631 -79.0178 323° Northwest  Level FlightAware Approximate
02:58AM 11.2569 -79.0901 323° Northwest  Level FlightAware Approximate
02:59AM 11.3507 -79.1626 323° Northwest  Level FlightAware Approximate
03:00AM 11.4445 -79.2350 323° Northwest  Level FlightAware Approximate
03:01AM 11.5382 -79.3075 323° Northwest  Level FlightAware Approximate
03:02AM 11.6320 -79.3801 323° Northwest  Level FlightAware Approximate
03:03AM 11.7257 -79.4527 323° Northwest  Level FlightAware Approximate
03:04AM 11.8194 -79.5254 323° Northwest  Level FlightAware Approximate
03:05AM 11.9131 -79.5981 323° Northwest  Level FlightAware Approximate
03:06AM 12.0068 -79.6708 323° Northwest  Level FlightAware Approximate
03:07AM 12.1005 -79.7436 323° Northwest  Level FlightAware Approximate
03:08AM 12.1941 -79.8165 323° Northwest  Level FlightAware Approximate
03:09AM 12.2877 -79.8894 323° Northwest  Level FlightAware Approximate
03:10AM 12.3813 -79.9624 323° Northwest  Level FlightAware Approximate
03:11AM 12.4749 -80.0354 323° Northwest  Level FlightAware Approximate
03:12AM 12.5685 -80.1085 323° Northwest  Level FlightAware Approximate
03:13AM 12.6620 -80.1816 323° Northwest  Level FlightAware Approximate
03:14AM 12.7555 -80.2548 323° Northwest  Level FlightAware Approximate
03:15AM 12.8490 -80.3280 323° Northwest  Level FlightAware Approximate
03:16AM 12.9425 -80.4013 323° Northwest  Level FlightAware Approximate
03:17AM 13.0360 -80.4746 323° Northwest  Level FlightAware Approximate
03:18AM 13.1294 -80.5480 323° Northwest  Level FlightAware Approximate
03:19AM 13.2228 -80.6215 323° Northwest  Level FlightAware Approximate
03:20AM 13.3162 -80.6950 323° Northwest  Level FlightAware Approximate
03:21AM 13.4096 -80.7685 323° Northwest  Level FlightAware Approximate
03:22AM 13.5030 -80.8421 323° Northwest  Level FlightAware Approximate
03:23AM 13.5963 -80.9158 323° Northwest  Level FlightAware Approximate
03:24AM 13.6896 -80.9896 322° Northwest  Level FlightAware Approximate
03:25AM 13.7829 -81.0633 322° Northwest  Level FlightAware Approximate
03:26AM 13.8762 -81.1372 322° Northwest  Level FlightAware Approximate
03:27AM 13.9694 -81.2111 322° Northwest  Level FlightAware Approximate
03:28AM 14.0626 -81.2851 322° Northwest  Level FlightAware Approximate
03:29AM 14.1558 -81.3591 322° Northwest  Level FlightAware Approximate
03:30AM 14.2490 -81.4332 322° Northwest  Level FlightAware Approximate
03:31AM 14.3422 -81.5074 322° Northwest  Level FlightAware Approximate
03:32AM 14.4353 -81.5816 322° Northwest  Level FlightAware Approximate
03:33AM 14.5284 -81.6559 322° Northwest  Level FlightAware Approximate
03:34AM 14.6215 -81.7302 322° Northwest  Level FlightAware Approximate
03:35AM 14.7146 -81.8046 322° Northwest  Level FlightAware Approximate
03:36AM 14.8076 -81.8791 322° Northwest  Level FlightAware Approximate
03:37AM 14.9006 -81.9536 322° Northwest  Level FlightAware Approximate
03:38AM 14.9936 -82.0282 322° Northwest  Level FlightAware Approximate
03:39AM 15.0845 -82.1057 320° Northwest  Level FlightAware Approximate
03:40AM 15.1751 -82.1834 320° Northwest  Level FlightAware Approximate
03:41AM 15.2666 -82.2600 322° Northwest  Level FlightAware Approximate
03:42AM 15.3596 -82.3346 322° Northwest  Level FlightAware Approximate
03:43AM 15.4527 -82.4094 322° Northwest  Level FlightAware Approximate
03:44AM 15.5457 -82.4842 322° Northwest  Level FlightAware Approximate
03:45AM 15.6386 -82.5590 322° Northwest  Level FlightAware Approximate
03:46AM 15.7316 -82.6339 322° Northwest  Level FlightAware Approximate
03:47AM 15.8245 -82.7089 322° Northwest  Level FlightAware Approximate
03:48AM 15.9174 -82.7840 322° Northwest  Level FlightAware Approximate
03:49AM 16.0103 -82.8591 322° Northwest  Level FlightAware Approximate
03:50AM 16.1038 -82.9348 322° Northwest  Level FlightAware Approximate
03:51AM 16.1973 -83.0107 322° Northwest  Level FlightAware Approximate
03:52AM 16.2908 -83.0865 322° Northwest  Level FlightAware Approximate
03:53AM 16.3842 -83.1625 322° Northwest  Level FlightAware Approximate
03:54AM 16.4776 -83.2385 322° Northwest  Level FlightAware Approximate
03:55AM 16.5710 -83.3147 322° Northwest  Level FlightAware Approximate
03:56AM 16.6644 -83.3908 322° Northwest  Level FlightAware Approximate
03:57AM 16.7577 -83.4671 322° Northwest  Level FlightAware Approximate
03:58AM 16.8510 -83.5434 322° Northwest  Level FlightAware Approximate
03:59AM 16.9443 -83.6198 322° Northwest  Level FlightAware Approximate
04:00AM 17.0375 -83.6963 322° Northwest  Level FlightAware Approximate
04:01AM 17.1308 -83.7729 322° Northwest  Level FlightAware Approximate
04:02AM 17.2239 -83.8495 322° Northwest  Level FlightAware Approximate
04:03AM 17.3171 -83.9262 322° Northwest  Level FlightAware Approximate
04:04AM 17.4102 -84.0030 322° Northwest  Level FlightAware Approximate
04:05AM 17.5033 -84.0799 322° Northwest  Level FlightAware Approximate
04:06AM 17.5964 -84.1568 322° Northwest  Level FlightAware Approximate
04:07AM 17.6894 -84.2338 322° Northwest  Level FlightAware Approximate
04:08AM 17.7824 -84.3109 322° Northwest  Level FlightAware Approximate
04:09AM 17.8754 -84.3881 322° Northwest  Level FlightAware Approximate
04:10AM 17.9684 -84.4654 322° Northwest  Level FlightAware Approximate
04:11AM 18.0613 -84.5427 322° Northwest  Level FlightAware Approximate
04:12AM 18.1542 -84.6202 321° Northwest  Level FlightAware Approximate
04:13AM 18.2468 -84.6981 321° Northwest  Level FlightAware Approximate
04:14AM 18.3393 -84.7760 321° Northwest  Level FlightAware Approximate
04:15AM 18.4318 -84.8541 321° Northwest  Level FlightAware Approximate
04:16AM 18.5243 -84.9322 321° Northwest  Level FlightAware Approximate
04:17AM 18.6168 -85.0104 321° Northwest  Level FlightAware Approximate
04:18AM 18.7092 -85.0887 321° Northwest  Level FlightAware Approximate
04:19AM 18.8016 -85.1671 321° Northwest  Level FlightAware Approximate
04:20AM 18.8939 -85.2456 321° Northwest  Level FlightAware Approximate
04:21AM 18.9863 -85.3241 321° Northwest  Level FlightAware Approximate
04:22AM 19.0784 -85.4030 321° Northwest  Level FlightAware Approximate
04:23AM 19.1703 -85.4822 321° Northwest  Level FlightAware Approximate
04:24AM 19.2622 -85.5614 321° Northwest  Level FlightAware Approximate
04:25AM 19.3541 -85.6407 321° Northwest  Level FlightAware Approximate
04:26AM 19.4459 -85.7201 321° Northwest  Level FlightAware Approximate
04:27AM 19.5377 -85.7996 321° Northwest  Level FlightAware Approximate
04:28AM 19.6295 -85.8792 321° Northwest  Level FlightAware Approximate
04:29AM 19.7212 -85.9589 321° Northwest  Level FlightAware Approximate
04:30AM 19.8129 -86.0387 321° Northwest  Level FlightAware Approximate
04:31AM 19.9048 -86.1183 321° Northwest  Level FlightAware Approximate
04:32AM 19.9970 -86.1974 321° Northwest  Level FlightAware Approximate
04:33AM 20.0910 -86.2744 322° Northwest  Level FlightAware Approximate
04:34AM 20.1849 -86.3513 321° Northwest  Level FlightAware Approximate
04:35AM 20.2765 -86.4315 321° Northwest  Level FlightAware Approximate
04:36AM 20.3680 -86.5118 321° Northwest  Level FlightAware Approximate
04:37AM 20.4595 -86.5921 321° Northwest  Level FlightAware Approximate
04:38AM 20.5510 -86.6726 321° Northwest  Level FlightAware Approximate
04:39AM 20.6424 -86.7531 321° Northwest  Level FlightAware Approximate
04:40AM 20.7338 -86.8338 321° Northwest  Level FlightAware Approximate
04:41AM 20.8253 -86.9144 321° Northwest  Level FlightAware Approximate
04:42AM 20.9167 -86.9951 320° Northwest  Level FlightAware Approximate
04:43AM 21.0081 -87.0759 320° Northwest  Level FlightAware Approximate
04:44AM 21.0994 -87.1568 320° Northwest  Level FlightAware Approximate
04:45AM 21.1908 -87.2378 320° Northwest  Level FlightAware Approximate
04:46AM 21.2820 -87.3189 320° Northwest  Level FlightAware Approximate
04:47AM 21.3733 -87.4001 320° Northwest  Level FlightAware Approximate
04:48AM 21.4645 -87.4814 320° Northwest  Level FlightAware Approximate
04:49AM 21.5553 -87.5631 320° Northwest  Level FlightAware Approximate
04:50AM 21.6462 -87.6450 320° Northwest  Level FlightAware Approximate
04:51AM 21.7370 -87.7269 320° Northwest  Level FlightAware Approximate
04:52AM 21.8277 -87.8090 320° Northwest  Level FlightAware Approximate
04:53AM 21.9185 -87.8912 320° Northwest  Level FlightAware Approximate
04:54AM 22.0091 -87.9734 320° Northwest  Level FlightAware Approximate
04:55AM 22.0998 -88.0558 320° Northwest  Level FlightAware Approximate
04:56AM 22.1935 -88.1335 330° Northwest  Level FlightAware Approximate
04:57AM 22.2961 -88.1976 330° Northwest  Level FlightAware Approximate
04:58AM 22.3894 -88.2766 322° Northwest  Level FlightAware Approximate
04:59AM 22.4873 -88.3485 328° Northwest  Level FlightAware Approximate
05:00AM 22.5874 -88.4173 328° Northwest  Level FlightAware Approximate
05:01AM 22.6873 -88.4863 325° Northwest  Level FlightAware Approximate
05:02AM 22.7845 -88.5598 325° Northwest  Level FlightAware Approximate
05:03AM 22.8817 -88.6334 325° Northwest  Level FlightAware Approximate
05:04AM 22.9788 -88.7071 325° Northwest  Level FlightAware Approximate
05:05AM 23.0759 -88.7809 325° Northwest  Level FlightAware Approximate
05:06AM 23.1730 -88.8549 324° Northwest  Level FlightAware Approximate
05:07AM 23.2694 -88.9299 324° Northwest  Level FlightAware Approximate
05:08AM 23.3665 -89.0038 326° Northwest  Level FlightAware Approximate
05:09AM 23.4643 -89.0768 326° Northwest  Level FlightAware Approximate
05:10AM 23.5620 -89.1498 326° Northwest  Level FlightAware Approximate
05:11AM 23.6597 -89.2230 326° Northwest  Level FlightAware Approximate
05:12AM 23.7574 -89.2963 326° Northwest  Level FlightAware Approximate
05:13AM 23.8551 -89.3697 325° Northwest  Level FlightAware Approximate
05:14AM 23.9527 -89.4432 325° Northwest  Level FlightAware Approximate
05:15AM 24.0503 -89.5169 326° Northwest  Level FlightAware Approximate
05:16AM 24.1490 -89.5888 326° Northwest  Level FlightAware Approximate
05:17AM 24.2476 -89.6608 326° Northwest  Level FlightAware Approximate
05:18AM 24.3489 -89.7298 325° Northwest  Level FlightAware Approximate
05:19AM 24.4465 -89.8050 325° Northwest  Level FlightAware Approximate
05:20AM 24.5426 -89.8824 325° Northwest  Level FlightAware Approximate
05:21AM 24.6406 -89.9571 325° Northwest  Level FlightAware Approximate
05:22AM 24.7374 -90.0310 325° Northwest  Level FlightAware Approximate
05:23AM 24.8342 -90.1049 325° Northwest  Level FlightAware Approximate
05:24AM 24.9310 -90.1791 325° Northwest  Level FlightAware Approximate
05:25AM 25.0277 -90.2533 325° Northwest  Level FlightAware Approximate
05:26AM 25.1243 -90.3276 325° Northwest  Level FlightAware Approximate
05:27AM 25.2210 -90.4021 325° Northwest  Level FlightAware Approximate
05:28AM 25.3176 -90.4767 325° Northwest  Level FlightAware Approximate
05:29AM 25.4141 -90.5514 325° Northwest  Level FlightAware Approximate
05:30AM 25.5106 -90.6262 325° Northwest  Level FlightAware Approximate
05:31AM 25.6071 -90.7011 325° Northwest  Level FlightAware Approximate
05:31AM 26.5225 -91.4300 325° Northwest 253 291 40,000  Level Houston Center
05:32AM 25.7036 -90.7762 325° Northwest  Level FlightAware Approximate
05:32AM 26.6017 -91.4964 323° Northwest 414 476 40,000  Level Houston Center
05:33AM 25.7999 -90.8514 325° Northwest  Level FlightAware Approximate
05:33AM 26.7192 -91.5875 325° Northwest 418 481 39,900  Level Houston Center
05:34AM 25.8963 -90.9267 325° Northwest  Level FlightAware Approximate
05:34AM 26.8147 -91.6592 326° Northwest 422 486 39,900  Level Houston Center
05:35AM 25.9926 -91.0021 325° Northwest  Level FlightAware Approximate
05:35AM 26.9069 -91.7336 324° Northwest 432 497 40,000  Level Houston Center
05:36AM 26.0889 -91.0777 325° Northwest  Level FlightAware Approximate
05:36AM 27.0056 -91.8131 324° Northwest 436 502 40,000  Level Houston Center
05:37AM 27.1042 -91.8936 324° Northwest 438 504 40,000  Level Houston Center
05:38AM 27.2028 -91.9725 325° Northwest 436 502 40,000  Level Houston Center
05:39AM 27.2975 -92.0547 322° Northwest 432 497 40,000  Level Houston Center
05:40AM 27.3831 -92.1500 315° West 432 497 40,000 -60 Level Houston Center
05:41AM 27.4706 -92.2431 317° Northwest 431 496 39,900  Descending Houston Center
05:42AM 27.5567 -92.3350 317° Northwest 429 494 40,000  Climbing Houston Center
05:43AM 27.6433 -92.4267 317° Northwest 427 491 40,000  Level Houston Center
05:44AM 27.7294 -92.5203 316° Northwest 429 494 40,000 -60 Level Houston Center
05:45AM 27.8175 -92.6108 318° Northwest 428 493 39,900  Descending Houston Center
05:46AM 27.9044 -92.7042 317° Northwest 430 495 40,000  Climbing Houston Center
05:47AM 27.9914 -92.7981 316° Northwest 432 497 40,000  Level Houston Center
05:48AM 28.0783 -92.8939 316° Northwest 435 501 40,000  Level Houston Center
05:49AM 28.1667 -92.9883 317° Northwest 437 503 40,000  Level Houston Center
05:50AM 28.2544 -93.0853 316° Northwest 439 505 40,000  Level Houston Center
05:51AM 28.3428 -93.1794 317° Northwest 438 504 40,000  Level Houston Center
05:52AM 28.4272 -93.2744 315° West 437 503 40,000 -60 Level Houston Center
05:53AM 28.5158 -93.3689 317° Northwest 436 502 39,900 -600 Descending Houston Center
05:54AM 28.6072 -93.4683 316° Northwest 442 509 38,900 -960 Descending Houston Center
05:55AM 28.6950 -93.5625 317° Northwest 447 514 38,000 -900 Descending Houston Center
05:56AM 28.7825 -93.6586 316° Northwest 439 505 37,100 -1,440 Descending Houston Center
05:57AM 28.8725 -93.7575 316° Northwest 437 503 35,100 -3,000 Descending Houston Center
05:58AM 28.9722 -93.8708 315° West 437 503 31,100 -3,840 Descending Houston Center
05:58AM 28.9950 -93.8983 313° West 437 503 30,300 -3,720 Descending Houston Center
05:59AM 29.0422 -93.9494 317° Northwest 430 495 27,900 -3,000 Descending Houston Center
06:00AM 29.1319 -94.0453 317° Northwest 417 480 25,500 -2,400 Descending Houston Center
06:01AM 29.2222 -94.1461 316° Northwest 398 458 22,900 -2,280 Descending Houston Center
06:02AM 29.2961 -94.2322 315° West 381 438 20,700 -2,280 Descending Houston Center
06:03AM 29.3644 -94.3072 316° Northwest 376 433 18,600 -2,280 Descending Houston Center
06:04AM 29.4378 -94.3889 316° Northwest 366 421 16,400 -2,160 Descending Houston Center
06:05AM 29.5158 -94.4556 323° Northwest 345 397 14,300 -2,040 Descending Houston Center
06:06AM 29.5958 -94.5200 325° Northwest 343 395 12,300 -1,860 Descending Houston Center
06:07AM 29.6747 -94.5850 324° Northwest 337 388 10,400 -1,440 Descending Houston Center
06:08AM 29.7464 -94.6425 325° Northwest 304 350 9,400 -1,320 Descending Houston Center
06:09AM 29.8033 -94.6883 325° Northwest 296 341 8,100 -1,440 Descending Houston Center
06:10AM 29.8722 -94.7494 322° Northwest 295 339 6,700 -1,260 Descending Houston Center
06:11AM 29.9047 -94.8250 296° West 254 292 5,600 -1,020 Descending Houston Center
06:12AM 29.9342 -94.8911 297° West 228 262 4,700 -900 Descending Houston Center
06:13AM 29.9586 -94.9483 296° West 196 226 3,800 -1,080 Descending Houston Center
06:14AM 29.9761 -95.0017 291° West 187 215 2,700 -1,020 Descending Houston Center
06:14AM 29.9783 -95.0086 290° West 197 227 2,600 -660 Descending Houston Center
06:15AM 29.9775 -95.0619 269° West 172 198 2,000 -720 Descending Houston Center